createdAt,value
2022-09-02T00:01:38.082Z,48.74
2022-09-02T00:04:09.319Z,48.85
2022-09-02T00:06:37.386Z,49.10
2022-09-02T00:09:06.901Z,48.53
2022-09-02T00:11:34.685Z,49.44
2022-09-02T00:14:04.615Z,49.71
2022-09-02T00:16:33.349Z,49.29
2022-09-02T00:19:02.526Z,50.04
2022-09-02T00:21:31.003Z,50.15
2022-09-02T00:23:57.505Z,50.25
2022-09-02T00:26:24.674Z,50.31
2022-09-02T00:28:56.187Z,50.55
2022-09-02T00:31:24.748Z,50.41
2022-09-02T00:33:51.431Z,51.03
2022-09-02T00:36:17.985Z,50.46
2022-09-02T00:38:44.447Z,50.79
2022-09-02T00:41:12.204Z,50.58
2022-09-02T00:43:55.432Z,50.52
2022-09-02T00:46:24.968Z,50.62
2022-09-02T00:49:00.443Z,50.75
2022-09-02T00:51:30.634Z,51.10
2022-09-02T00:53:57.108Z,51.09
2022-09-02T00:56:30.340Z,51.02
2022-09-02T00:58:58.494Z,51.04
2022-09-02T01:01:27.195Z,51.05
2022-09-02T01:03:54.300Z,51.32
2022-09-02T01:06:24.401Z,51.31
2022-09-02T01:08:57.998Z,50.83
2022-09-02T01:11:32.333Z,51.11
2022-09-02T01:13:59.610Z,51.00
2022-09-02T01:16:39.836Z,51.20
2022-09-02T01:19:31.101Z,51.51
2022-09-02T01:21:58.169Z,51.26
2022-09-02T01:24:29.546Z,51.39
2022-09-02T01:26:58.022Z,51.38
2022-09-02T01:29:26.424Z,51.55
2022-09-02T01:31:53.749Z,51.84
2022-09-02T01:34:20.516Z,52.37
2022-09-02T01:36:47.137Z,52.29
2022-09-02T01:39:14.012Z,51.80
2022-09-02T01:41:41.397Z,51.57
2022-09-02T01:44:08.433Z,51.72
2022-09-02T01:46:36.462Z,51.93
2022-09-02T01:49:04.132Z,52.06
2022-09-02T01:51:31.027Z,52.30
2022-09-02T01:53:57.494Z,52.60
2022-09-02T01:56:23.960Z,52.02
2022-09-02T01:58:50.454Z,52.34
2022-09-02T02:01:19.248Z,52.11
2022-09-02T02:03:45.745Z,52.26
2022-09-02T02:06:14.461Z,52.53
2022-09-02T02:08:41.232Z,52.42
2022-09-02T02:11:09.152Z,52.60
2022-09-02T02:13:36.018Z,52.68
2022-09-02T02:16:03.325Z,52.71
2022-09-02T02:18:29.966Z,52.72
2022-09-02T02:20:56.421Z,53.26
2022-09-02T02:23:24.651Z,52.95
2022-09-02T02:25:51.279Z,53.19
2022-09-02T02:28:18.259Z,53.24
2022-09-02T02:30:44.762Z,53.21
2022-09-02T02:33:11.405Z,53.30
2022-09-02T02:35:37.987Z,53.41
2022-09-02T02:38:04.600Z,53.52
2022-09-02T02:40:32.034Z,53.40
2022-09-02T02:42:59.094Z,53.17
2022-09-02T02:45:26.155Z,53.92
2022-09-02T02:47:53.277Z,54.05
2022-09-02T02:50:22.671Z,54.29
2022-09-02T02:52:53.368Z,54.12
2022-09-02T02:55:20.621Z,54.40
2022-09-02T02:57:47.123Z,54.02
2022-09-02T03:00:22.012Z,54.25
2022-09-02T03:02:49.617Z,54.08
2022-09-02T03:05:16.677Z,53.98
2022-09-02T03:07:43.334Z,53.92
2022-09-02T03:10:11.541Z,54.52
2022-09-02T03:12:39.578Z,54.46
2022-09-02T03:15:08.809Z,54.77
2022-09-02T03:17:35.513Z,54.25
2022-09-02T03:20:02.399Z,54.90
2022-09-02T03:22:29.241Z,54.94
2022-09-02T03:24:55.679Z,55.16
2022-09-02T03:27:22.296Z,55.12
2022-09-02T03:29:48.793Z,55.09
2022-09-02T03:32:15.457Z,55.12
2022-09-02T03:34:42.218Z,54.91
2022-09-02T03:37:09.226Z,54.97
2022-09-02T03:39:37.736Z,55.33
2022-09-02T03:42:05.734Z,55.22
2022-09-02T03:44:34.241Z,55.38
2022-09-02T03:47:00.861Z,55.53
2022-09-02T03:49:30.061Z,55.66
2022-09-02T03:51:56.576Z,56.01
2022-09-02T03:54:23.161Z,55.72
2022-09-02T03:56:50.111Z,56.02
2022-09-02T03:59:17.418Z,56.55
2022-09-02T04:01:44.871Z,56.31
2022-09-02T04:04:11.648Z,56.16
2022-09-02T04:06:38.971Z,56.25
2022-09-02T04:09:05.916Z,56.45
2022-09-02T04:11:32.481Z,56.21
2022-09-02T04:13:59.181Z,55.94
2022-09-02T04:16:28.700Z,56.60
2022-09-02T04:18:58.071Z,56.01
2022-09-02T04:21:26.005Z,56.82
2022-09-02T04:23:52.635Z,56.09
2022-09-02T04:26:20.967Z,56.47
2022-09-02T04:28:48.478Z,56.35
2022-09-02T04:31:18.033Z,56.49
2022-09-02T04:33:45.210Z,56.46
2022-09-02T04:36:14.730Z,56.60
2022-09-02T04:38:41.709Z,56.63
2022-09-02T04:41:14.600Z,56.66
2022-09-02T04:43:42.179Z,56.77
2022-09-02T04:46:11.612Z,56.97
2022-09-02T04:48:39.184Z,56.81
2022-09-02T04:51:07.929Z,57.29
2022-09-02T04:53:35.730Z,57.78
2022-09-02T04:56:11.181Z,57.24
2022-09-02T04:58:38.357Z,57.65
2022-09-02T05:01:10.340Z,57.70
2022-09-02T05:03:38.017Z,57.40
2022-09-02T05:06:08.069Z,57.77
2022-09-02T05:08:37.932Z,58.12
2022-09-02T05:11:13.884Z,58.51
2022-09-02T05:13:41.510Z,58.26
2022-09-02T05:16:08.260Z,58.49
2022-09-02T05:18:35.185Z,58.17
2022-09-02T05:21:06.410Z,58.82
2022-09-02T05:23:33.313Z,59.01
2022-09-02T05:25:59.840Z,59.17
2022-09-02T05:28:26.307Z,59.16
2022-09-02T05:30:52.784Z,58.94
2022-09-02T05:33:19.889Z,58.64
2022-09-02T05:35:47.124Z,58.54
2022-09-02T05:38:17.280Z,58.68
2022-09-02T05:40:43.812Z,58.62
2022-09-02T05:43:10.267Z,58.42
2022-09-02T05:45:39.161Z,58.47
2022-09-02T05:48:26.664Z,58.58
2022-09-02T05:50:57.280Z,58.52
2022-09-02T05:53:26.817Z,57.70
2022-09-02T05:55:53.560Z,57.43
2022-09-02T05:58:20.009Z,57.42
2022-09-02T06:00:46.525Z,57.25
2022-09-02T06:03:13.660Z,56.75
2022-09-02T06:05:42.502Z,56.81
2022-09-02T06:08:09.025Z,56.48
2022-09-02T06:10:42.185Z,56.30
2022-09-02T06:13:11.666Z,55.86
2022-09-02T06:15:44.274Z,55.95
2022-09-02T06:18:13.458Z,55.73
2022-09-02T06:20:42.932Z,55.89
2022-09-02T06:23:10.000Z,55.53
2022-09-02T06:25:38.632Z,54.89
2022-09-02T06:28:07.382Z,54.78
2022-09-02T06:30:34.900Z,54.28
2022-09-02T06:33:04.226Z,53.97
2022-09-02T06:35:34.798Z,53.84
2022-09-02T06:38:01.320Z,53.79
2022-09-02T06:40:27.988Z,53.04
2022-09-02T06:42:54.572Z,53.32
2022-09-02T06:45:21.352Z,53.05
2022-09-02T06:47:47.851Z,52.61
2022-09-02T06:50:14.700Z,52.28
2022-09-02T06:52:41.228Z,51.92
2022-09-02T06:55:08.259Z,51.94
2022-09-02T06:57:35.386Z,51.72
2022-09-02T07:00:04.489Z,51.43
2022-09-02T07:02:30.919Z,51.17
2022-09-02T07:05:15.548Z,50.73
2022-09-02T07:07:44.320Z,50.41
2022-09-02T07:10:13.192Z,50.25
2022-09-02T07:12:40.753Z,50.71
2022-09-02T07:15:11.389Z,50.18
2022-09-02T07:17:38.107Z,49.83
2022-09-02T07:20:06.200Z,49.92
2022-09-02T07:22:32.706Z,49.41
2022-09-02T07:24:59.786Z,49.14
2022-09-02T07:27:26.295Z,49.87
2022-09-02T07:29:53.628Z,48.85
2022-09-02T07:32:21.515Z,49.15
2022-09-02T07:34:48.061Z,48.41
2022-09-02T07:37:14.566Z,48.43
2022-09-02T07:39:41.005Z,48.69
2022-09-02T07:42:08.765Z,48.36
2022-09-02T07:44:36.721Z,48.72
2022-09-02T07:47:03.948Z,47.77
2022-09-02T07:50:15.715Z,48.08
2022-09-02T07:52:17.061Z,48.27
2022-09-02T07:54:43.580Z,47.27
2022-09-02T07:57:10.014Z,47.52
2022-09-02T07:59:36.527Z,48.04
2022-09-02T08:02:03.106Z,48.61
2022-09-02T08:04:29.659Z,48.54
2022-09-02T08:06:56.262Z,48.98
2022-09-02T08:09:23.347Z,49.09
2022-09-02T08:11:51.312Z,48.42
2022-09-02T08:14:21.824Z,49.37
2022-09-02T08:16:48.784Z,48.48
2022-09-02T08:19:16.128Z,48.12
2022-09-02T08:21:42.563Z,48.46
2022-09-02T08:24:10.045Z,48.64
2022-09-02T08:26:39.223Z,48.47
2022-09-02T08:29:07.423Z,48.62
2022-09-02T08:31:36.444Z,48.96
2022-09-02T08:34:03.579Z,48.28
2022-09-02T08:36:30.545Z,48.36
2022-09-02T08:38:57.722Z,47.22
2022-09-02T08:41:26.783Z,47.60
2022-09-02T08:43:57.606Z,46.33
2022-09-02T08:46:27.448Z,46.13
2022-09-02T08:49:08.297Z,46.15
2022-09-02T08:51:52.853Z,45.83
2022-09-02T08:54:30.344Z,45.84
2022-09-02T08:56:58.091Z,45.12
2022-09-02T08:59:27.633Z,45.60
2022-09-02T09:02:23.985Z,45.68
2022-09-02T09:05:19.653Z,44.70
2022-09-02T09:08:24.809Z,45.06
2022-09-02T09:11:12.815Z,44.62
2022-09-02T09:13:54.683Z,44.74
2022-09-02T09:16:35.485Z,44.71
2022-09-02T09:19:13.156Z,44.54
2022-09-02T09:21:41.081Z,44.20
2022-09-02T09:24:18.746Z,44.26
2022-09-02T09:26:47.314Z,43.83
2022-09-02T09:29:13.765Z,43.52
2022-09-02T09:31:41.789Z,44.07
2022-09-02T09:34:11.817Z,44.53
2022-09-02T09:36:41.403Z,44.34
2022-09-02T09:39:25.102Z,44.14
2022-09-02T09:41:54.259Z,44.17
2022-09-02T09:44:44.929Z,43.70
2022-09-02T09:47:19.671Z,44.41
2022-09-02T09:49:48.382Z,43.87
2022-09-02T09:52:26.032Z,43.59
2022-09-02T09:55:06.264Z,43.82
2022-09-02T09:57:35.823Z,42.99
2022-09-02T10:00:14.896Z,43.36
2022-09-02T10:02:50.967Z,43.29
2022-09-02T10:05:39.061Z,43.21
2022-09-02T10:08:27.621Z,43.78
2022-09-02T10:11:05.367Z,43.47
2022-09-02T10:13:37.431Z,43.37
2022-09-02T10:16:30.273Z,44.09
2022-09-02T10:19:09.446Z,42.87
2022-09-02T10:21:53.529Z,43.71
2022-09-02T10:24:41.161Z,42.84
2022-09-02T10:27:13.187Z,42.33
2022-09-02T10:30:03.515Z,42.02
2022-09-02T10:32:46.913Z,41.56
2022-09-02T10:35:32.972Z,41.08
2022-09-02T10:38:05.753Z,41.32
2022-09-02T10:40:44.107Z,41.00
2022-09-02T10:43:36.309Z,41.25
2022-09-02T10:46:08.412Z,40.19
2022-09-02T10:49:01.561Z,40.62
2022-09-02T10:51:55.633Z,40.09
2022-09-02T10:54:43.945Z,40.25
2022-09-02T10:57:14.568Z,39.35
2022-09-02T10:59:48.055Z,39.52
2022-09-02T11:02:28.430Z,40.13
2022-09-02T11:05:02.438Z,38.81
2022-09-02T11:07:36.577Z,39.61
2022-09-02T11:10:30.706Z,39.22
2022-09-02T11:13:05.203Z,37.88
2022-09-02T11:15:45.891Z,38.00
2022-09-02T11:18:39.202Z,37.57
2022-09-02T11:21:49.385Z,38.15
2022-09-02T11:24:39.677Z,37.17
2022-09-02T11:27:42.162Z,37.86
2022-09-02T11:30:16.977Z,37.33
2022-09-02T11:32:52.936Z,36.71
2022-09-02T11:35:28.935Z,36.53
2022-09-02T11:38:23.172Z,35.98
2022-09-02T11:43:43.875Z,35.54
2022-09-02T11:46:36.298Z,34.42
2022-09-02T11:49:11.851Z,33.26
2022-09-02T11:51:47.306Z,33.65
2022-09-02T11:54:17.678Z,32.92
2022-09-02T11:56:51.967Z,33.26
2022-09-02T11:59:43.359Z,33.15
2022-09-02T12:02:12.698Z,32.10
2022-09-02T12:04:59.261Z,32.42
2022-09-02T12:07:26.766Z,31.51
2022-09-02T12:10:03.101Z,31.35
2022-09-02T12:12:38.887Z,31.45
2022-09-02T12:15:05.407Z,29.59
2022-09-02T12:17:38.006Z,30.29
2022-09-02T12:20:08.267Z,29.63
2022-09-02T12:22:40.668Z,30.67
2022-09-02T12:25:27.034Z,30.84
2022-09-02T12:28:18.064Z,31.11
2022-09-02T12:31:02.998Z,31.36
2022-09-02T12:33:38.139Z,30.38
2022-09-02T12:36:09.257Z,30.82
2022-09-02T12:38:38.961Z,31.42
2022-09-02T12:41:07.857Z,29.68
2022-09-02T12:43:50.836Z,30.73
2022-09-02T12:46:21.417Z,30.60
2022-09-02T12:49:14.366Z,30.07
2022-09-02T12:51:58.169Z,30.46
2022-09-02T12:54:48.938Z,30.06
2022-09-02T12:57:19.531Z,30.62
2022-09-02T12:59:47.868Z,31.40
2022-09-02T13:02:28.094Z,31.43
2022-09-02T13:05:42.660Z,30.86
2022-09-02T13:08:33.638Z,31.14
2022-09-02T13:11:06.281Z,30.61
2022-09-02T13:13:47.994Z,31.21
2022-09-02T13:16:41.995Z,31.64
2022-09-02T13:19:22.902Z,30.90
2022-09-02T13:22:31.188Z,30.94
2022-09-02T13:25:19.398Z,30.02
2022-09-02T13:28:18.269Z,30.03
2022-09-02T13:30:53.729Z,30.13
2022-09-02T13:33:21.375Z,30.19
2022-09-02T13:35:54.699Z,30.37
2022-09-02T13:38:25.236Z,30.49
2022-09-02T13:40:52.029Z,30.04
2022-09-02T13:43:20.881Z,29.10
2022-09-02T13:45:49.214Z,29.15
2022-09-02T13:48:17.735Z,29.62
2022-09-02T13:50:46.862Z,29.70
2022-09-02T13:53:45.402Z,29.65
2022-09-02T13:56:17.614Z,29.56
2022-09-02T13:58:56.601Z,29.43
2022-09-02T14:01:34.010Z,29.49
2022-09-02T14:06:40.148Z,29.52
2022-09-02T14:09:11.619Z,29.24
2022-09-02T14:11:43.892Z,29.12
2022-09-02T14:14:22.192Z,28.74
2022-09-02T14:16:48.913Z,29.26
2022-09-02T14:19:16.352Z,29.05
2022-09-02T14:21:49.184Z,29.09
2022-09-02T14:24:21.438Z,28.74
2022-09-02T14:26:51.017Z,29.63
2022-09-02T14:29:20.017Z,30.07
2022-09-02T14:32:02.524Z,30.26
2022-09-02T14:34:34.920Z,30.71
2022-09-02T14:37:14.909Z,30.68
2022-09-02T14:39:59.869Z,30.14
2022-09-02T14:42:29.483Z,29.21
2022-09-02T14:44:59.407Z,28.74
2022-09-02T14:47:28.185Z,28.46
2022-09-02T14:49:58.351Z,28.46
2022-09-02T14:52:35.655Z,28.53
2022-09-02T14:55:06.012Z,28.77
2022-09-02T14:57:38.889Z,28.00
2022-09-02T15:00:11.065Z,28.68
2022-09-02T15:02:42.418Z,28.27
2022-09-02T15:05:14.276Z,28.55
2022-09-02T15:07:41.453Z,27.53
2022-09-02T15:10:09.706Z,27.80
2022-09-02T15:12:46.523Z,27.94
2022-09-02T15:15:13.019Z,27.97
2022-09-02T15:17:39.451Z,28.48
2022-09-02T15:20:08.276Z,28.12
2022-09-02T15:22:38.585Z,27.78
2022-09-02T15:25:08.011Z,27.34
2022-09-02T15:27:35.179Z,27.48
2022-09-02T15:30:01.788Z,27.85
2022-09-02T15:32:28.378Z,28.04
2022-09-02T15:34:54.887Z,27.97
2022-09-02T15:37:21.314Z,28.32
2022-09-02T15:39:48.745Z,27.67
2022-09-02T15:42:15.270Z,28.11
2022-09-02T15:44:41.938Z,27.91
2022-09-02T15:47:08.493Z,28.35
2022-09-02T15:49:35.111Z,28.58
2022-09-02T15:52:02.972Z,28.47
2022-09-02T15:54:31.593Z,28.21
2022-09-02T15:56:58.818Z,27.74
2022-09-02T15:59:26.376Z,28.13
2022-09-02T16:01:55.764Z,28.71
2022-09-02T16:04:22.998Z,27.94
2022-09-02T16:06:52.334Z,27.81
2022-09-02T16:09:19.797Z,28.21
2022-09-02T16:11:52.339Z,28.71
2022-09-02T16:14:21.042Z,28.86
2022-09-02T16:16:49.797Z,28.23
2022-09-02T16:19:21.257Z,28.03
2022-09-02T16:21:49.134Z,29.01
2022-09-02T16:24:16.205Z,29.10
2022-09-02T16:26:42.823Z,28.87
2022-09-02T16:29:16.020Z,29.47
2022-09-02T16:31:44.126Z,29.53
2022-09-02T16:34:13.467Z,28.97
2022-09-02T16:36:42.364Z,28.77
2022-09-02T16:39:13.057Z,29.34
2022-09-02T16:41:52.957Z,29.68
2022-09-02T16:44:21.917Z,29.96
2022-09-02T16:46:49.788Z,29.87
2022-09-02T16:49:18.564Z,29.47
2022-09-02T16:51:46.711Z,29.87
2022-09-02T16:54:17.901Z,30.26
2022-09-02T16:56:48.322Z,30.53
2022-09-02T16:59:14.890Z,31.11
2022-09-02T17:01:41.425Z,30.45
2022-09-02T17:04:08.858Z,30.61
2022-09-02T17:06:39.946Z,31.14
2022-09-02T17:09:09.359Z,31.08
2022-09-02T17:11:39.632Z,30.73
2022-09-02T17:14:16.107Z,31.02
2022-09-02T17:16:48.338Z,31.08
2022-09-02T17:19:21.154Z,30.76
2022-09-02T17:21:50.858Z,31.11
2022-09-02T17:24:19.527Z,31.48
2022-09-02T17:26:50.495Z,31.26
2022-09-02T17:29:46.914Z,31.24
2022-09-02T17:32:06.611Z,31.80
2022-09-02T17:34:33.801Z,31.93
2022-09-02T17:37:00.579Z,31.71
2022-09-02T17:39:27.342Z,32.21
2022-09-02T17:41:59.623Z,32.45
2022-09-02T17:44:34.921Z,32.31
2022-09-02T17:47:05.255Z,32.46
2022-09-02T17:49:36.718Z,32.54
2022-09-02T17:52:07.955Z,32.88
2022-09-02T17:54:36.413Z,32.64
2022-09-02T17:57:08.383Z,33.30
2022-09-02T17:59:59.027Z,32.81
2022-09-02T18:02:50.415Z,32.98
2022-09-02T18:05:27.810Z,32.65
2022-09-02T18:08:08.817Z,33.33
2022-09-02T18:10:39.826Z,33.44
2022-09-02T18:13:10.021Z,33.29
2022-09-02T18:15:56.707Z,33.33
2022-09-02T18:18:23.904Z,33.63
2022-09-02T18:21:01.291Z,34.00
2022-09-02T18:23:47.353Z,34.21
2022-09-02T18:26:29.753Z,34.30
2022-09-02T18:28:58.923Z,34.93
2022-09-02T18:31:47.454Z,34.41
2022-09-02T18:34:30.590Z,34.80
2022-09-02T18:37:10.096Z,34.60
2022-09-02T18:40:02.524Z,34.84
2022-09-02T18:42:38.908Z,35.05
2022-09-02T18:45:32.215Z,34.99
2022-09-02T18:48:04.626Z,35.54
2022-09-02T18:50:52.272Z,35.64
2022-09-02T18:53:23.323Z,35.47
2022-09-02T18:55:52.102Z,35.40
2022-09-02T18:58:36.479Z,35.51
2022-09-02T19:01:14.317Z,35.97
2022-09-02T19:03:40.863Z,35.74
2022-09-02T19:06:17.300Z,36.57
2022-09-02T19:08:47.977Z,35.94
2022-09-02T19:11:18.051Z,36.26
2022-09-02T19:13:53.026Z,36.49
2022-09-02T19:16:34.522Z,36.30
2022-09-02T19:19:01.027Z,36.32
2022-09-02T19:21:47.139Z,36.56
2022-09-02T19:24:26.874Z,36.60
2022-09-02T19:26:59.512Z,36.80
2022-09-02T19:29:26.697Z,36.89
2022-09-02T19:31:54.742Z,37.00
2022-09-02T19:34:22.665Z,37.15
2022-09-02T19:36:51.340Z,37.25
2022-09-02T19:39:17.849Z,37.19
2022-09-02T19:41:45.705Z,37.32
2022-09-02T19:44:15.363Z,37.44
2022-09-02T19:47:24.765Z,37.71
2022-09-02T19:49:28.375Z,37.69
2022-09-02T19:51:55.476Z,37.65
2022-09-02T19:54:22.523Z,37.94
2022-09-02T19:56:49.080Z,38.53
2022-09-02T19:59:15.549Z,38.36
2022-09-02T20:01:42.124Z,38.39
2022-09-02T20:04:08.654Z,38.88
2022-09-02T20:06:35.213Z,38.60
2022-09-02T20:09:01.752Z,38.88
2022-09-02T20:11:28.973Z,38.76
2022-09-02T20:13:56.600Z,38.96
2022-09-02T20:16:24.996Z,39.10
2022-09-02T20:18:53.315Z,39.27
2022-09-02T20:21:24.872Z,39.20
2022-09-02T20:23:53.860Z,39.35
2022-09-02T20:26:53.486Z,39.41
2022-09-02T20:29:28.630Z,39.56
2022-09-02T20:32:03.881Z,39.47
2022-09-02T20:34:36.394Z,39.33
2022-09-02T20:37:10.880Z,39.46
2022-09-02T20:40:06.053Z,39.60
2022-09-02T20:43:06.370Z,39.45
2022-09-02T20:45:42.494Z,40.11
2022-09-02T20:48:27.530Z,40.17
2022-09-02T20:51:10.297Z,40.12
2022-09-02T20:53:48.821Z,40.29
2022-09-02T20:56:34.794Z,40.16
2022-09-02T20:59:15.210Z,40.17
2022-09-02T21:01:45.434Z,40.78
2022-09-02T21:04:24.119Z,40.56
2022-09-02T21:07:07.729Z,40.42
2022-09-02T21:09:49.189Z,40.83
2022-09-02T21:12:26.893Z,40.73
2022-09-02T21:15:03.890Z,40.85
2022-09-02T21:17:48.800Z,40.71
2022-09-02T21:20:43.832Z,40.92
2022-09-02T21:23:20.542Z,41.03
2022-09-02T21:25:55.831Z,41.10
2022-09-02T21:28:45.650Z,41.06
2022-09-02T21:31:23.351Z,41.32
2022-09-02T21:33:53.469Z,41.44
2022-09-02T21:36:26.868Z,41.30
2022-09-02T21:38:56.393Z,41.61
2022-09-02T21:41:35.929Z,41.67
2022-09-02T21:44:19.359Z,41.36
2022-09-02T21:47:43.640Z,41.49
2022-09-02T21:50:16.545Z,41.61
2022-09-02T21:52:58.503Z,42.41
2022-09-02T21:55:46.266Z,41.88
2022-09-02T21:58:47.208Z,41.84
2022-09-02T22:01:27.438Z,42.07
2022-09-02T22:04:02.496Z,42.37
2022-09-02T22:06:33.547Z,42.31
2022-09-02T22:09:14.660Z,42.36
2022-09-02T22:11:47.027Z,42.28
2022-09-02T22:14:25.354Z,42.38
2022-09-02T22:17:00.218Z,42.83
2022-09-02T22:19:30.989Z,41.92
2022-09-02T22:22:07.657Z,42.52
2022-09-02T22:24:37.242Z,42.52
2022-09-02T22:27:17.112Z,42.92
2022-09-02T22:29:53.813Z,42.77
2022-09-02T22:32:23.036Z,42.93
2022-09-02T22:35:17.075Z,43.16
2022-09-02T22:37:54.919Z,42.99
2022-09-02T22:40:24.286Z,42.76
2022-09-02T22:42:57.145Z,43.14
2022-09-02T22:45:51.593Z,42.97
2022-09-02T22:48:52.219Z,43.19
2022-09-02T22:51:55.551Z,43.17
2022-09-02T22:54:21.989Z,43.27
2022-09-02T22:57:09.687Z,43.43
2022-09-02T22:59:48.087Z,43.71
2022-09-02T23:02:52.033Z,43.42
2022-09-02T23:05:51.949Z,43.87
2022-09-02T23:08:20.601Z,43.68
2022-09-02T23:10:57.154Z,43.68
2022-09-02T23:13:56.110Z,43.87
2022-09-02T23:16:45.027Z,43.83
2022-09-02T23:19:34.891Z,44.01
2022-09-02T23:22:12.006Z,44.12
2022-09-02T23:25:16.175Z,44.16
2022-09-02T23:28:18.494Z,44.37
2022-09-02T23:31:09.785Z,44.41
2022-09-02T23:33:51.300Z,44.74
2022-09-02T23:36:34.345Z,44.61
2022-09-02T23:39:30.555Z,44.75
2022-09-02T23:42:01.370Z,45.09
2022-09-02T23:44:29.559Z,44.94
2022-09-02T23:47:06.678Z,44.93
2022-09-02T23:50:09.715Z,45.22
2022-09-02T23:52:56.300Z,45.33
2022-09-02T23:55:55.771Z,45.32
2022-09-02T23:58:45.278Z,45.57
